Time;durP1;ratioP1;P1;durP2;ratioP2;P2;SDS_P1;SDS_P2;PMS_P1;PMS_P2;Temp;Humidity;BMP_temperature;BMP_pressure;BME280_temperature;BME280_humidity;BME280_pressure;Samples;Min_cycle;Max_cycle;Signal;HPM_P1;HPM_P2
2023/05/03 00:00:39;;;;;;;;;4.00;3.33;;;;;24.05;36.71;102411.47;5078373;28;45374;-77
2023/05/03 00:03:05;;;;;;;;;2.00;2.00;;;;;24.03;36.26;102403.66;5078085;28;45340;-78
2023/05/03 00:05:31;;;;;;;;;2.67;2.67;;;;;24.07;36.76;102425.47;5077971;27;45504;-77
2023/05/03 00:07:57;;;;;;;;;4.00;4.00;;;;;24.05;36.42;102417.63;5078038;27;45444;-77
2023/05/03 00:10:23;;;;;;;;;3.33;3.33;;;;;23.92;36.38;102412.72;5077861;27;45539;-77
2023/05/03 00:12:48;;;;;;;;;3.00;3.00;;;;;23.93;36.45;102419.72;5078000;28;45394;-77
2023/05/03 00:15:13;;;;;;;;;5.00;3.00;;;;;24.04;36.60;102437.25;5077940;27;45407;-77
2023/05/03 00:17:39;;;;;;;;;2.67;2.67;;;;;24.00;36.86;102424.38;5059619;28;45545;-77
2023/05/03 00:20:06;;;;;;;;;3.00;3.00;;;;;24.04;36.60;102437.25;5078034;28;45368;-77
2023/05/03 00:22:31;;;;;;;;;4.00;4.00;;;;;24.00;36.60;102429.69;5078072;28;45456;-77
2023/05/03 00:24:58;;;;;;;;;4.67;4.00;;;;;24.05;36.42;102438.88;5077414;27;46112;-77
2023/05/03 00:27:24;;;;;;;;;3.33;3.33;;;;;23.99;36.18;102428.91;5077617;27;45437;-77
2023/05/03 00:29:53;;;;;;;;;3.33;3.33;;;;;24.02;36.08;102436.53;5077907;27;45381;-78
2023/05/03 00:32:21;;;;;;;;;3.00;3.00;;;;;24.05;36.49;102449.53;5077595;28;45312;-77
2023/05/03 00:34:55;;;;;;;;;3.67;3.00;;;;;24.05;36.52;102454.84;5077556;28;46638;-77
2023/05/03 00:37:22;;;;;;;;;2.67;2.67;;;;;24.05;36.17;102454.84;5077675;27;45238;-77
2023/05/03 00:39:47;;;;;;;;;3.00;3.00;;;;;24.05;36.57;102454.00;5077149;28;45350;-77
2023/05/03 00:42:12;;;;;;;;;3.67;2.00;;;;;24.05;36.65;102448.69;5077476;27;45357;-77
2023/05/03 00:44:38;;;;;;;;;3.00;1.67;;;;;24.06;36.06;102450.38;5077383;27;47004;-77
2023/05/03 00:47:03;;;;;;;;;3.33;2.00;;;;;24.01;36.40;102444.69;5076867;28;45378;-77
2023/05/03 00:49:29;;;;;;;;;4.00;4.00;;;;;23.98;36.54;102443.16;5077247;28;45352;-77
2023/05/03 00:51:56;;;;;;;;;2.00;2.00;;;;;23.91;36.41;102432.31;5077463;27;45386;-77
2023/05/03 00:54:22;;;;;;;;;3.00;3.00;;;;;24.04;36.15;102447.03;5077069;28;47050;-77
2023/05/03 00:56:47;;;;;;;;;3.33;2.67;;;;;24.06;36.04;102445.03;5077178;27;45370;-77
2023/05/03 00:59:13;;;;;;;;;2.33;2.33;;;;;23.81;36.15;102413.78;5077432;27;45361;-78
2023/05/03 01:01:38;;;;;;;;;4.00;4.00;;;;;24.05;36.07;102449.53;5077288;27;45461;-77
2023/05/03 01:04:06;;;;;;;;;3.00;3.00;;;;;23.71;36.49;102403.25;5077193;27;45488;-77
2023/05/03 01:06:42;;;;;;;;;2.00;2.00;;;;;23.98;36.24;102452.97;5077290;27;45336;-77
2023/05/03 01:09:25;;;;;;;;;3.33;2.00;;;;;23.95;36.41;102428.34;5076851;27;45425;-78
2023/05/03 01:12:10;;;;;;;;;4.00;2.00;;;;;23.94;36.35;102433.84;5077292;28;45481;-77
2023/05/03 01:14:36;;;;;;;;;3.00;3.00;;;;;24.03;36.73;102443.53;5076893;27;47024;-77
2023/05/03 01:17:07;;;;;;;;;2.00;2.00;;;;;23.86;36.26;102413.34;5077058;28;45237;-77
2023/05/03 01:19:41;;;;;;;;;2.33;2.33;;;;;24.03;36.07;102437.38;5077119;27;45356;-78
2023/05/03 01:22:21;;;;;;;;;2.33;2.00;;;;;24.02;36.45;102431.22;5077146;28;45465;-77
2023/05/03 01:25:17;;;;;;;;;4.67;4.00;;;;;23.82;36.06;102401.34;5057995;28;46133;-77
2023/05/03 01:27:43;;;;;;;;;4.00;3.00;;;;;24.02;36.18;102430.41;5058186;28;45460;-78
2023/05/03 01:30:10;;;;;;;;;3.00;3.00;;;;;24.03;36.29;102418.75;5076938;28;45409;-77
2023/05/03 01:33:02;;;;;;;;;2.00;2.00;;;;;23.94;36.42;102412.56;5076544;27;45514;-77
2023/05/03 01:35:49;;;;;;;;;3.00;3.00;;;;;24.02;36.16;102423.25;5076557;27;46182;-77
2023/05/03 01:38:17;;;;;;;;;3.67;3.67;;;;;24.01;36.19;102420.75;5076187;28;45556;-77
2023/05/03 01:40:48;;;;;;;;;4.33;3.67;;;;;23.96;35.94;102411.44;5076488;28;45424;-77
2023/05/03 01:43:15;;;;;;;;;2.67;2.67;;;;;23.95;35.97;102408.91;5076577;28;45469;-78
2023/05/03 01:45:41;;;;;;;;;3.00;3.00;;;;;23.91;36.32;102408.41;5058156;28;46305;-78
2023/05/03 01:48:17;;;;;;;;;3.00;3.00;;;;;23.92;35.85;102401.25;5076401;28;45368;-78
2023/05/03 01:50:43;;;;;;;;;4.00;2.67;;;;;23.96;36.29;102407.94;5076837;28;45671;-77
2023/05/03 01:53:09;;;;;;;;;3.00;1.00;;;;;24.01;36.01;102408.31;5076022;27;45361;-78
2023/05/03 01:55:34;;;;;;;;;2.33;2.33;;;;;24.01;35.92;102410.97;5076198;27;46490;-77
2023/05/03 01:58:00;;;;;;;;;4.00;4.00;;;;;24.02;35.87;102415.28;5076349;28;45325;-78
2023/05/03 02:00:25;;;;;;;;;4.33;4.00;;;;;23.84;35.87;102383.41;5076035;27;45358;-77
2023/05/03 02:02:51;;;;;;;;;1.67;1.67;;;;;24.03;35.92;102408.13;5076246;28;45429;-77
2023/05/03 02:05:16;;;;;;;;;3.00;3.00;;;;;24.02;35.96;102404.63;5076228;28;46071;-77
2023/05/03 02:07:41;;;;;;;;;4.00;2.33;;;;;23.83;36.08;102373.78;5075967;28;45454;-78
2023/05/03 02:10:07;;;;;;;;;1.00;1.00;;;;;24.01;36.03;102400.31;5076390;28;45910;-78
2023/05/03 02:12:33;;;;;;;;;1.33;1.33;;;;;24.02;35.88;102407.28;5076157;28;45547;-78
2023/05/03 02:14:58;;;;;;;;;2.00;2.00;;;;;24.02;36.22;102398.50;5075911;27;47054;-78
2023/05/03 02:17:25;;;;;;;;;2.67;2.67;;;;;24.01;36.31;102395.00;5076202;28;45289;-78
2023/05/03 02:19:51;;;;;;;;;2.33;2.33;;;;;23.99;36.18;102393.50;5076298;28;45361;-78
2023/05/03 02:22:17;;;;;;;;;2.00;2.00;;;;;23.81;35.87;102360.63;5075589;28;45345;-77
2023/05/03 02:24:42;;;;;;;;;2.00;2.00;;;;;23.89;35.94;102381.13;5075858;28;45418;-78
2023/05/03 02:27:07;;;;;;;;;2.00;1.33;;;;;24.00;36.24;102393.31;5075758;27;45756;-77
2023/05/03 02:29:33;;;;;;;;;2.00;2.00;;;;;24.00;35.89;102395.16;5076169;28;45305;-78
2023/05/03 02:31:58;;;;;;;;;2.00;2.00;;;;;24.00;35.97;102397.81;5075957;28;45287;-77
2023/05/03 02:34:25;;;;;;;;;2.00;2.00;;;;;23.85;36.03;102377.97;5075907;27;46241;-78
2023/05/03 02:36:50;;;;;;;;;3.00;2.00;;;;;23.85;36.01;102377.13;5075598;28;45227;-78
2023/05/03 02:39:16;;;;;;;;;2.00;1.00;;;;;23.84;35.84;102370.13;5075583;28;45288;-78
2023/05/03 02:41:41;;;;;;;;;1.00;1.00;;;;;23.89;35.89;102380.31;5075898;27;45411;-77
2023/05/03 02:44:06;;;;;;;;;3.33;3.33;;;;;23.99;35.88;102402.31;5075559;28;46450;-78
2023/05/03 02:46:31;;;;;;;;;2.67;2.33;;;;;23.96;35.81;102398.13;5075761;28;45300;-77
2023/05/03 02:48:57;;;;;;;;;1.33;1.33;;;;;23.98;36.12;102397.13;5075793;27;45340;-78
2023/05/03 02:51:23;;;;;;;;;2.00;2.00;;;;;23.94;36.36;102388.66;5075393;28;45257;-78
2023/05/03 02:53:48;;;;;;;;;1.67;1.67;;;;;23.97;35.92;102393.63;5075745;28;46656;-79
2023/05/03 02:56:13;;;;;;;;;2.33;2.33;;;;;23.87;36.14;102383.09;5075397;27;45410;-79
2023/05/03 02:58:39;;;;;;;;;4.00;4.00;;;;;23.99;35.88;102398.81;5075729;28;45243;-77
2023/05/03 03:01:04;;;;;;;;;2.00;2.00;;;;;23.94;35.46;102386.00;5075639;28;45221;-78
2023/05/03 03:03:29;;;;;;;;;3.00;3.00;;;;;23.98;36.19;102390.00;5075166;27;46321;-78
2023/05/03 03:05:55;;;;;;;;;2.33;2.33;;;;;23.98;35.68;102391.81;5075133;28;48952;-79
2023/05/03 03:08:22;;;;;;;;;3.67;3.00;;;;;23.94;35.89;102386.00;5075553;28;45689;-78
2023/05/03 03:10:47;;;;;;;;;3.00;3.00;;;;;23.95;35.83;102382.31;5076029;28;45477;-77
2023/05/03 03:13:13;;;;;;;;;2.00;1.67;;;;;23.79;35.94;102357.31;5078787;27;46007;-78
2023/05/03 03:15:38;;;;;;;;;2.67;1.00;;;;;23.90;36.09;102361.53;5078847;27;45385;-77
2023/05/03 03:18:04;;;;;;;;;3.00;1.33;;;;;23.91;36.06;102365.03;5079141;27;45560;-78
2023/05/03 03:20:30;;;;;;;;;1.33;1.33;;;;;23.96;35.51;102368.06;5078565;27;45459;-76
2023/05/03 03:22:55;;;;;;;;;1.00;1.00;;;;;23.94;36.16;102362.06;5078531;27;45463;-78
2023/05/03 03:25:20;;;;;;;;;3.00;1.00;;;;;23.96;35.45;102366.25;5078918;28;45305;-79
2023/05/03 03:27:45;;;;;;;;;2.00;2.00;;;;;23.90;36.36;102361.53;5078675;27;45378;-77
2023/05/03 03:30:11;;;;;;;;;2.00;2.00;;;;;23.65;35.82;102316.19;5078647;27;45288;-78
2023/05/03 03:32:36;;;;;;;;;2.00;2.00;;;;;23.97;35.74;102367.03;5078399;28;47114;-76
2023/05/03 03:35:02;;;;;;;;;2.67;1.00;;;;;23.96;35.62;102358.25;5078238;28;45347;-78
2023/05/03 03:37:27;;;;;;;;;3.00;2.00;;;;;23.77;35.69;102326.56;5078733;27;45293;-75
2023/05/03 03:39:52;;;;;;;;;3.67;3.00;;;;;23.86;35.66;102341.59;5078448;28;45328;-78
2023/05/03 03:42:18;;;;;;;;;1.00;1.00;;;;;23.93;35.47;102347.94;5078225;28;46035;-76
2023/05/03 03:44:43;;;;;;;;;2.00;2.00;;;;;23.80;35.70;102340.38;5078524;27;45470;-77
2023/05/03 03:47:09;;;;;;;;;1.33;1.33;;;;;23.80;35.88;102335.06;5078750;28;45325;-78
2023/05/03 03:49:35;;;;;;;;;2.50;2.50;;;;;23.81;35.54;102339.38;5078191;27;45342;-78
2023/05/03 03:52:00;;;;;;;;;2.00;2.00;;;;;23.94;35.70;102351.44;5078094;28;45477;-78
2023/05/03 03:54:25;;;;;;;;;2.00;2.00;;;;;23.87;35.71;102345.06;5077882;28;45289;-78
2023/05/03 03:56:51;;;;;;;;;2.00;2.00;;;;;23.87;35.45;102342.41;5078509;27;45409;-78
2023/05/03 03:59:16;;;;;;;;;1.33;1.33;;;;;23.90;35.50;102350.06;5078333;28;45400;-78
2023/05/03 04:01:42;;;;;;;;;2.67;2.00;;;;;23.77;35.79;102331.88;5059914;28;46668;-77
2023/05/03 04:04:07;;;;;;;;;1.33;1.00;;;;;23.91;35.50;102344.59;5077725;28;45433;-78
2023/05/03 04:06:32;;;;;;;;;2.33;2.00;;;;;23.48;35.47;102284.16;5078539;28;45468;-78
2023/05/03 04:08:58;;;;;;;;;3.00;3.00;;;;;23.82;35.54;102335.72;5078061;27;45389;-78
2023/05/03 04:11:23;;;;;;;;;1.00;1.00;;;;;23.86;35.48;102336.28;5078035;28;46484;-78
2023/05/03 04:13:49;;;;;;;;;3.00;3.00;;;;;23.92;35.37;102342.75;5077984;27;45351;-78
2023/05/03 04:16:14;;;;;;;;;1.00;1.00;;;;;23.82;35.46;102337.56;5078078;27;45387;-78
2023/05/03 04:18:40;;;;;;;;;3.00;2.00;;;;;23.93;35.60;102355.91;5077789;28;45494;-78
2023/05/03 04:21:05;;;;;;;;;3.00;3.00;;;;;23.81;35.73;102336.72;5077729;28;46330;-78
2023/05/03 04:23:31;;;;;;;;;1.00;1.00;;;;;23.74;35.50;102325.88;5077721;28;45427;-77
2023/05/03 04:25:56;;;;;;;;;2.00;2.00;;;;;23.77;35.55;102334.53;5078043;28;45357;-77
2023/05/03 04:28:22;;;;;;;;;4.67;2.00;;;;;23.73;35.60;102320.75;5077683;27;45229;-78
2023/05/03 04:30:48;;;;;;;;;2.67;2.00;;;;;23.93;35.67;102350.59;5077696;27;47026;-78
2023/05/03 04:33:14;;;;;;;;;1.33;1.33;;;;;23.87;35.66;102343.22;5077195;28;45334;-77
2023/05/03 04:35:40;;;;;;;;;3.33;2.00;;;;;23.71;35.38;102310.25;5077902;28;45217;-78
2023/05/03 04:38:05;;;;;;;;;2.00;2.00;;;;;23.81;35.83;102328.75;5077619;28;45736;-78
2023/05/03 04:40:31;;;;;;;;;3.67;2.33;;;;;23.81;35.47;102338.56;5077264;28;45881;-78
2023/05/03 04:42:56;;;;;;;;;2.00;2.00;;;;;23.93;35.29;102349.75;5077455;28;45398;-78
2023/05/03 04:45:22;;;;;;;;;2.00;2.00;;;;;23.91;35.31;102346.44;5077619;28;45514;-78
2023/05/03 04:47:48;;;;;;;;;1.00;1.00;;;;;23.94;35.56;102348.78;5077517;27;45398;-78
2023/05/03 04:50:15;;;;;;;;;2.67;2.67;;;;;23.94;35.25;102344.28;5077331;28;45420;-79
2023/05/03 04:52:40;;;;;;;;;2.00;2.00;;;;;23.83;35.49;102329.44;5077473;28;45372;-78
2023/05/03 04:55:06;;;;;;;;;2.00;2.00;;;;;23.94;35.41;102341.63;5077438;27;45353;-77
2023/05/03 04:57:32;;;;;;;;;2.67;2.67;;;;;23.92;35.40;102340.09;5077411;27;45367;-77
2023/05/03 04:59:58;;;;;;;;;3.00;1.33;;;;;23.93;35.29;102341.78;5076850;28;45747;-76
2023/05/03 05:02:23;;;;;;;;;1.00;1.00;;;;;23.98;35.33;102349.28;5077113;28;45386;-77
2023/05/03 05:04:49;;;;;;;;;2.33;2.33;;;;;23.99;35.60;102350.97;5077198;27;45572;-77
2023/05/03 05:07:15;;;;;;;;;1.67;1.00;;;;;23.96;35.11;102344.97;5077334;27;45218;-77
2023/05/03 05:09:40;;;;;;;;;2.00;1.00;;;;;23.65;35.44;102291.44;5077016;28;47089;-78
2023/05/03 05:12:05;;;;;;;;;2.00;2.00;;;;;23.98;35.07;102342.16;5077066;28;45398;-79
2023/05/03 05:14:31;;;;;;;;;1.67;1.67;;;;;24.04;35.07;102346.00;5076844;27;45426;-77
2023/05/03 05:16:57;;;;;;;;;2.00;2.00;;;;;24.05;35.12;102348.50;5076920;27;45427;-78
2023/05/03 05:19:22;;;;;;;;;3.33;3.33;;;;;24.08;35.19;102357.97;5076862;28;46605;-78
2023/05/03 05:21:48;;;;;;;;;3.00;2.67;;;;;24.09;34.83;102354.34;5076785;28;45328;-75
2023/05/03 05:24:13;;;;;;;;;2.00;2.00;;;;;24.13;34.87;102355.69;5076894;28;45329;-78
2023/05/03 05:26:41;;;;;;;;;2.67;2.00;;;;;24.15;35.28;102347.53;5076868;27;45425;-78
2023/05/03 05:29:06;;;;;;;;;4.33;4.00;;;;;24.13;34.95;102346.88;5076439;27;47558;-79
2023/05/03 05:31:31;;;;;;;;;4.00;1.67;;;;;24.21;34.98;102349.56;5076612;28;45387;-76
2023/05/03 05:33:57;;;;;;;;;2.33;2.33;;;;;24.23;35.35;102349.41;5076207;28;45261;-76
2023/05/03 05:36:22;;;;;;;;;2.00;2.00;;;;;24.23;35.32;102338.75;5075553;28;45543;-76
2023/05/03 05:38:47;;;;;;;;;1.00;1.00;;;;;24.29;35.14;102331.03;5054215;28;47163;-75
2023/05/03 05:41:13;;;;;;;;;4.00;3.00;;;;;24.53;35.14;102349.91;5055321;28;45447;-75
2023/05/03 05:43:38;;;;;;;;;1.67;1.67;;;;;24.62;35.05;102348.94;5055329;28;45305;-75
2023/05/03 05:46:03;;;;;;;;;3.00;2.00;;;;;24.66;34.96;102335.31;5067336;28;45356;-75
2023/05/03 05:48:29;;;;;;;;;4.00;3.00;;;;;24.87;34.66;102339.34;5056070;28;45421;-74
2023/05/03 05:50:55;;;;;;;;;2.67;2.33;;;;;25.11;34.64;102349.22;5055715;28;45278;-76
2023/05/03 05:53:20;;;;;;;;;1.33;1.33;;;;;24.83;34.02;102273.13;5056474;28;45416;-76
2023/05/03 05:55:45;;;;;;;;;1.67;1.67;;;;;25.38;34.12;102331.28;5056293;28;45383;-75
2023/05/03 05:58:12;;;;;;;;;2.00;2.00;;;;;25.62;33.93;102332.25;5055616;28;47275;-75
2023/05/03 06:00:38;;;;;;;;;1.00;1.00;;;;;25.86;33.57;102348.41;5056013;28;45376;-75
2023/05/03 06:03:04;;;;;;;;;2.33;2.33;;;;;25.96;33.13;102346.38;5037972;28;45398;-75
2023/05/03 06:05:29;;;;;;;;;2.00;0.00;;;;;26.12;33.15;102343.84;5055871;28;45458;-76
2023/05/03 06:07:54;;;;;;;;;1.33;0.67;;;;;26.23;32.84;102343.44;5055785;28;46089;-75
2023/05/03 06:10:20;;;;;;;;;1.00;1.00;;;;;26.37;33.16;102347.25;5055902;28;45487;-74
2023/05/03 06:12:45;;;;;;;;;3.00;2.00;;;;;26.45;32.59;102342.91;5037692;28;45707;-75
2023/05/03 06:15:10;;;;;;;;;1.00;1.00;;;;;26.32;32.97;102304.25;5055881;28;45286;-74
2023/05/03 06:17:36;;;;;;;;;2.67;2.67;;;;;26.67;32.16;102359.16;5055723;28;46285;-75
2023/05/03 06:20:03;;;;;;;;;1.00;1.00;;;;;26.67;32.14;102364.50;5055800;28;45378;-74
2023/05/03 06:22:28;;;;;;;;;2.00;2.00;;;;;26.64;32.04;102363.00;5055797;28;45430;-75
2023/05/03 06:24:55;;;;;;;;;1.00;1.00;;;;;26.60;32.15;102356.34;5055646;28;45345;-75
2023/05/03 06:27:20;;;;;;;;;1.67;1.00;;;;;26.65;32.51;102351.28;5062121;27;45454;-74
2023/05/03 06:29:46;;;;;;;;;1.00;1.00;;;;;26.72;32.24;102352.28;5075787;28;45438;-75
2023/05/03 06:32:12;;;;;;;;;1.00;1.00;;;;;26.91;32.44;102357.31;5076001;28;45372;-75
2023/05/03 06:34:38;;;;;;;;;1.00;1.00;;;;;26.70;32.30;102324.91;5075865;27;45611;-75
2023/05/03 06:37:03;;;;;;;;;1.33;1.33;;;;;27.12;32.02;102355.84;5075806;27;45376;-75
2023/05/03 06:39:29;;;;;;;;;0.00;0.00;;;;;27.23;31.78;102343.94;5075517;28;45439;-75
2023/05/03 06:41:55;;;;;;;;;1.00;1.00;;;;;27.46;31.66;102346.56;5075487;28;45249;-78
2023/05/03 06:44:20;;;;;;;;;1.00;1.00;;;;;27.55;31.24;102346.50;5057523;28;45299;-77
2023/05/03 06:46:45;;;;;;;;;1.67;1.67;;;;;27.54;31.64;102350.19;5077837;27;45288;-78
2023/05/03 06:49:11;;;;;;;;;1.00;1.00;;;;;27.50;31.04;102339.88;5079364;27;45403;-77
2023/05/03 06:51:36;;;;;;;;;2.67;2.00;;;;;27.43;31.05;102322.06;5079258;27;45348;-77
2023/05/03 06:54:08;;;;;;;;;1.00;1.00;;;;;27.45;31.10;102336.09;5079380;27;45499;-76
2023/05/03 06:56:37;;;;;;;;;0.67;0.67;;;;;27.32;31.09;102348.22;5078789;28;45548;-76
2023/05/03 06:59:03;;;;;;;;;1.00;0.33;;;;;27.25;31.19;102345.41;5061137;28;45359;-76
2023/05/03 07:01:29;;;;;;;;;0.67;0.67;;;;;27.09;31.62;102332.97;5060959;28;45363;-76
2023/05/03 07:03:55;;;;;;;;;0.00;0.00;;;;;27.02;31.15;102334.72;5079154;28;45408;-75
2023/05/03 07:06:22;;;;;;;;;0.00;0.00;;;;;26.96;31.84;102344.25;5078805;27;45372;-75
2023/05/03 07:08:49;;;;;;;;;1.00;1.00;;;;;26.83;32.03;102324.31;5076048;28;45483;-76
2023/05/03 07:11:15;;;;;;;;;1.67;0.00;;;;;26.83;31.53;102337.69;5077770;28;45479;-75
2023/05/03 07:13:40;;;;;;;;;1.00;1.00;;;;;26.70;32.19;102313.41;5078560;28;45223;-75
2023/05/03 07:16:06;;;;;;;;;3.00;2.00;;;;;26.69;31.97;102333.94;5078723;28;47115;-74
2023/05/03 07:18:31;;;;;;;;;3.00;1.67;;;;;26.63;32.14;102327.47;5078289;28;45264;-75
2023/05/03 07:20:57;;;;;;;;;1.00;1.00;;;;;26.59;32.16;102331.50;5060416;28;45281;-75
2023/05/03 07:23:22;;;;;;;;;2.00;2.00;;;;;26.53;31.90;102321.50;5078442;28;45464;-75
2023/05/03 07:25:47;;;;;;;;;1.00;1.00;;;;;26.41;32.27;102319.19;5078158;27;46092;-75
2023/05/03 07:28:13;;;;;;;;;3.33;2.00;;;;;26.35;31.96;102308.41;5078008;27;45311;-76
2023/05/03 07:30:38;;;;;;;;;2.00;1.00;;;;;26.36;31.75;102312.75;5078296;28;45174;-75
2023/05/03 07:33:03;;;;;;;;;3.33;3.00;;;;;26.37;32.32;102320.56;5059793;28;45262;-75
2023/05/03 07:35:30;;;;;;;;;2.67;2.67;;;;;26.37;32.12;102322.38;5078219;28;45274;-77
2023/05/03 07:37:55;;;;;;;;;1.00;1.00;;;;;26.27;32.31;102296.75;5078472;28;45466;-76
2023/05/03 07:40:21;;;;;;;;;1.33;1.33;;;;;26.26;32.53;102304.94;5076730;28;45569;-76
2023/05/03 07:42:47;;;;;;;;;1.00;1.00;;;;;26.28;32.22;102298.41;5077397;27;45419;-76
2023/05/03 07:45:12;;;;;;;;;3.67;3.00;;;;;26.26;32.56;102302.25;5076831;28;46223;-76
2023/05/03 07:47:38;;;;;;;;;4.00;1.00;;;;;26.16;32.22;102289.97;5077346;27;45539;-75
2023/05/03 07:50:05;;;;;;;;;3.67;3.67;;;;;26.25;31.96;102305.94;5077371;28;45336;-75
2023/05/03 07:52:37;;;;;;;;;1.00;1.00;;;;;26.20;32.80;102295.81;5077422;27;45519;-76
2023/05/03 07:55:04;;;;;;;;;2.00;1.33;;;;;26.23;32.57;102300.78;5076509;28;46075;-76
2023/05/03 07:57:29;;;;;;;;;3.33;2.00;;;;;26.13;32.34;102289.47;5076353;28;45400;-76
2023/05/03 07:59:55;;;;;;;;;1.67;1.67;;;;;26.18;32.48;102292.44;5076877;28;45320;-76
2023/05/03 08:02:21;;;;;;;;;2.67;2.67;;;;;26.21;32.56;102291.28;5076973;27;45236;-76
2023/05/03 08:04:46;;;;;;;;;2.00;2.00;;;;;26.09;32.62;102277.50;5076613;28;45542;-76
2023/05/03 08:07:12;;;;;;;;;0.00;0.00;;;;;26.18;32.73;102293.28;5075544;28;45349;-75
2023/05/03 08:09:37;;;;;;;;;3.00;2.00;;;;;26.15;32.83;102290.16;5076092;28;45252;-75
2023/05/03 08:12:03;;;;;;;;;2.00;2.00;;;;;26.01;32.80;102265.03;5076655;28;45386;-75
2023/05/03 08:14:28;;;;;;;;;1.33;1.00;;;;;26.16;32.81;102278.47;5076360;28;46960;-74
2023/05/03 08:16:53;;;;;;;;;2.00;2.00;;;;;26.16;32.94;102294.47;5076438;28;45422;-75
2023/05/03 08:19:19;;;;;;;;;3.67;2.00;;;;;26.15;32.83;102287.50;5075437;28;45383;-75
2023/05/03 08:21:45;;;;;;;;;1.00;1.00;;;;;26.12;32.68;102280.66;5076463;28;50044;-75
2023/05/03 08:24:12;;;;;;;;;2.00;1.33;;;;;26.15;33.03;102279.50;5075666;28;47062;-75
2023/05/03 08:26:39;;;;;;;;;1.67;1.67;;;;;26.15;32.40;102284.81;5076442;27;45418;-75
2023/05/03 08:29:04;;;;;;;;;1.00;1.00;;;;;26.01;32.87;102265.88;5076465;28;45497;-76
2023/05/03 08:31:30;;;;;;;;;2.00;2.00;;;;;26.06;32.67;102268.84;5076517;28;45438;-76
2023/05/03 08:33:55;;;;;;;;;1.00;1.00;;;;;26.10;32.69;102285.31;5076064;28;46375;-75
2023/05/03 08:36:20;;;;;;;;;1.00;1.00;;;;;26.14;32.37;102277.81;5076315;28;45463;-75
2023/05/03 08:38:46;;;;;;;;;1.50;1.00;;;;;26.03;32.49;102252.34;5036131;27;1131026;-75
2023/05/03 08:41:24;;;;;;;;;1.33;1.33;;;;;26.15;32.53;102274.97;5077303;27;45462;-75
2023/05/03 08:43:53;;;;;;;;;2.33;2.00;;;;;26.16;32.65;102291.81;5077321;27;46371;-75
2023/05/03 08:46:18;;;;;;;;;1.33;1.33;;;;;26.10;33.00;102257.84;5077205;28;45437;-75
2023/05/03 08:48:47;;;;;;;;;3.00;2.00;;;;;26.15;32.75;102279.50;5077250;28;45339;-75
2023/05/03 08:51:13;;;;;;;;;1.00;1.00;;;;;26.07;32.82;102257.16;5077268;28;45437;-75
2023/05/03 08:53:38;;;;;;;;;3.00;2.00;;;;;26.16;32.80;102265.97;5076564;28;46146;-76
2023/05/03 08:56:14;;;;;;;;;2.33;1.00;;;;;26.18;32.67;102279.97;5077261;28;45411;-75
2023/05/03 08:58:39;;;;;;;;;0.33;0.33;;;;;26.18;32.55;102269.28;5077239;28;45280;-75
2023/05/03 09:01:06;;;;;;;;;2.67;2.33;;;;;26.19;32.88;102275.47;5076683;28;45460;-75
2023/05/03 09:03:33;;;;;;;;;1.33;1.33;;;;;26.13;32.27;102254.81;5076686;28;46188;-75
2023/05/03 09:06:01;;;;;;;;;1.00;1.00;;;;;26.14;32.80;102257.31;5076678;28;45420;-75
2023/05/03 09:08:27;;;;;;;;;3.33;1.67;;;;;26.12;32.76;102280.66;5075662;28;45254;-75
2023/05/03 09:10:52;;;;;;;;;1.67;0.67;;;;;26.14;32.51;102257.31;5076826;28;45501;-75
2023/05/03 09:13:18;;;;;;;;;1.33;0.67;;;;;26.16;32.37;102241.97;5076709;28;46330;-76
2023/05/03 09:15:52;;;;;;;;;1.00;1.00;;;;;26.07;32.49;102243.81;5076768;28;45441;-75
2023/05/03 09:18:18;;;;;;;;;4.33;1.00;;;;;26.15;32.69;102263.50;5076812;28;45284;-75
2023/05/03 09:20:50;;;;;;;;;2.33;1.67;;;;;26.14;32.47;102267.97;5076847;28;45327;-74
2023/05/03 09:23:17;;;;;;;;;1.00;1.00;;;;;25.90;32.49;102204.91;5075955;28;46117;-75
2023/05/03 09:25:48;;;;;;;;;1.33;1.33;;;;;26.09;32.32;102238.34;5070776;28;45364;-75
2023/05/03 09:28:14;;;;;;;;;1.33;1.00;;;;;26.12;32.26;102243.31;5074431;27;45430;-75
2023/05/03 09:30:41;;;;;;;;;2.00;1.33;;;;;26.08;32.22;102223.31;5076384;28;45479;-75
2023/05/03 09:33:07;;;;;;;;;2.33;1.33;;;;;26.12;32.62;102258.50;5076283;28;45313;-76
2023/05/03 09:35:32;;;;;;;;;2.00;2.00;;;;;26.02;32.59;102230.19;5076114;27;45925;-77
2023/05/03 09:37:58;;;;;;;;;0.33;0.33;;;;;25.99;32.46;102233.22;5076691;28;45398;-79
2023/05/03 09:40:28;;;;;;;;;2.00;1.00;;;;;25.97;32.76;102219.19;5075914;28;45527;-79
2023/05/03 09:43:13;;;;;;;;;1.00;1.00;;;;;25.96;32.27;102220.22;5076147;28;46158;-79
2023/05/03 09:45:39;;;;;;;;;1.00;0.67;;;;;26.02;32.80;102213.38;5076409;28;45403;-80
2023/05/03 09:48:06;;;;;;;;;2.67;1.00;;;;;26.09;32.33;102230.34;5076394;28;45486;-79
2023/05/03 09:50:33;;;;;;;;;4.33;2.67;;;;;25.91;32.24;102191.44;5075861;28;45404;-77
2023/05/03 09:53:03;;;;;;;;;2.00;2.00;;;;;26.05;32.23;102223.66;5075983;28;46552;-80
2023/05/03 09:55:37;;;;;;;;;1.00;1.00;;;;;26.09;32.33;102245.50;5074657;28;45515;-79
2023/05/03 09:58:06;;;;;;;;;2.00;2.00;;;;;26.08;32.54;102220.66;5076059;27;45407;-89
2023/05/03 10:00:40;;;;;;;;;4.00;3.00;;;;;26.08;31.98;102226.00;5076243;28;45561;-78
2023/05/03 10:03:08;;;;;;;;;1.33;1.33;;;;;26.06;32.36;102207.50;5075754;28;47156;-81
2023/05/03 10:05:44;;;;;;;;;1.00;1.00;;;;;25.91;32.35;102175.44;5075369;28;45352;-78
2023/05/03 10:08:14;;;;;;;;;0.00;0.00;;;;;26.05;32.15;102221.00;5075646;28;45428;-78
2023/05/03 10:10:44;;;;;;;;;2.00;2.00;;;;;26.03;31.91;102213.19;5075813;28;45344;-79
2023/05/03 10:13:11;;;;;;;;;1.67;1.67;;;;;25.89;32.17;102195.28;5075946;28;46304;-79
2023/05/03 10:15:37;;;;;;;;;1.00;1.00;;;;;26.03;32.12;102215.00;5075056;28;45555;-79
2023/05/03 10:18:06;;;;;;;;;2.00;2.00;;;;;26.01;32.08;102212.53;5075730;28;45370;-78
2023/05/03 10:20:38;;;;;;;;;2.00;1.00;;;;;26.00;32.39;102221.53;5075248;28;45580;-79
2023/05/03 10:23:04;;;;;;;;;1.67;1.33;;;;;25.98;32.04;102209.38;5075630;28;46521;-79
2023/05/03 10:25:30;;;;;;;;;1.33;1.33;;;;;25.96;31.92;102196.22;5075317;28;45451;-79
2023/05/03 10:28:03;;;;;;;;;2.67;1.00;;;;;25.94;32.17;102179.59;5075882;27;45355;-79
2023/05/03 10:30:31;;;;;;;;;1.67;1.00;;;;;25.66;31.89;102137.38;5075619;28;45405;-79
2023/05/03 10:32:57;;;;;;;;;1.00;1.00;;;;;25.90;32.08;102188.91;5075431;28;46944;-79
2023/05/03 10:35:27;;;;;;;;;1.00;1.00;;;;;25.87;32.35;102183.94;5075227;28;45438;-78
2023/05/03 10:37:55;;;;;;;;;1.33;1.00;;;;;25.85;31.72;102184.09;5075809;28;45333;-79
2023/05/03 10:40:21;;;;;;;;;1.33;1.33;;;;;25.71;31.91;102153.66;5075383;27;45388;-79
2023/05/03 10:42:50;;;;;;;;;1.00;1.00;;;;;25.82;32.01;102195.13;5075166;28;47295;-78
2023/05/03 10:45:27;;;;;;;;;0.67;0.67;;;;;25.80;31.91;102168.63;5075461;28;45460;-79
2023/05/03 10:48:11;;;;;;;;;0.00;0.00;;;;;25.79;32.10;102150.16;5075125;28;45359;-78
2023/05/03 10:50:37;;;;;;;;;1.67;1.67;;;;;25.78;31.70;102149.34;5075451;28;45460;-79
2023/05/03 10:53:02;;;;;;;;;2.00;2.00;;;;;25.60;32.04;102122.91;5075062;28;45406;-79
2023/05/03 10:55:28;;;;;;;;;0.67;0.67;;;;;25.75;31.98;102139.00;5075146;28;45507;-79
2023/05/03 10:57:56;;;;;;;;;0.67;0.67;;;;;25.72;31.94;102137.50;5075450;28;45301;-78
2023/05/03 11:00:50;;;;;;;;;1.67;1.67;;;;;25.67;31.75;102123.84;5075173;28;45304;-79
2023/05/03 11:03:24;;;;;;;;;2.67;0.67;;;;;25.69;31.96;102119.19;5074583;28;47068;-79
2023/05/03 11:05:53;;;;;;;;;1.00;1.00;;;;;25.57;32.03;102093.94;5075124;28;45360;-79
2023/05/03 11:08:21;;;;;;;;;0.67;0.67;;;;;25.66;32.24;102121.38;5075320;28;45288;-79
2023/05/03 11:10:48;;;;;;;;;1.33;1.00;;;;;25.65;32.11;102114.38;5075322;28;45386;-78
2023/05/03 11:13:13;;;;;;;;;1.00;1.00;;;;;25.59;32.00;102094.56;5074925;28;47126;-79
2023/05/03 11:15:39;;;;;;;;;0.00;0.00;;;;;25.56;31.58;102105.56;5108032;27;45430;-78
2023/05/03 11:18:12;;;;;;;;;2.00;1.33;;;;;25.57;31.87;102110.75;5075069;28;45320;-78
2023/05/03 11:20:37;;;;;;;;;1.33;1.33;;;;;25.45;32.45;102066.84;5074839;28;45513;-78
2023/05/03 11:23:04;;;;;;;;;0.67;0.67;;;;;25.43;31.97;102063.50;5075040;27;45347;-79